sensor_id;sensor_type;location;lat;lon;timestamp;P1;durP1;ratioP1;P2;durP2;ratioP2
1400;SDS011;46518;48.842;8.926;2023-03-01T00:00:04;28.75;;;16.70;;
1400;SDS011;46518;48.842;8.926;2023-03-01T00:02:36;26.73;;;16.63;;
1400;SDS011;46518;48.842;8.926;2023-03-01T00:05:07;27.35;;;17.58;;
1400;SDS011;46518;48.842;8.926;2023-03-01T00:07:35;26.92;;;16.00;;
1400;SDS011;46518;48.842;8.926;2023-03-01T00:10:03;29.35;;;20.60;;
1400;SDS011;46518;48.842;8.926;2023-03-01T00:12:32;63.03;;;34.22;;
1400;SDS011;46518;48.842;8.926;2023-03-01T00:15:00;59.95;;;32.40;;
1400;SDS011;46518;48.842;8.926;2023-03-01T00:17:28;44.63;;;27.30;;
1400;SDS011;46518;48.842;8.926;2023-03-01T00:19:56;30.42;;;23.05;;
1400;SDS011;46518;48.842;8.926;2023-03-01T00:22:27;28.85;;;20.23;;
1400;SDS011;46518;48.842;8.926;2023-03-01T00:24:56;28.80;;;18.35;;
1400;SDS011;46518;48.842;8.926;2023-03-01T00:27:24;22.75;;;15.90;;
1400;SDS011;46518;48.842;8.926;2023-03-01T00:29:52;22.73;;;17.15;;
1400;SDS011;46518;48.842;8.926;2023-03-01T00:32:20;31.67;;;17.70;;
1400;SDS011;46518;48.842;8.926;2023-03-01T00:34:48;24.65;;;16.23;;
1400;SDS011;46518;48.842;8.926;2023-03-01T00:37:23;23.10;;;17.13;;
1400;SDS011;46518;48.842;8.926;2023-03-01T00:39:53;29.90;;;15.88;;
1400;SDS011;46518;48.842;8.926;2023-03-01T00:42:21;22.98;;;17.10;;
1400;SDS011;46518;48.842;8.926;2023-03-01T00:44:49;24.42;;;16.23;;
1400;SDS011;46518;48.842;8.926;2023-03-01T00:47:17;27.13;;;17.02;;
1400;SDS011;46518;48.842;8.926;2023-03-01T00:49:46;21.92;;;15.50;;
1400;SDS011;46518;48.842;8.926;2023-03-01T00:52:15;20.80;;;14.55;;
1400;SDS011;46518;48.842;8.926;2023-03-01T00:54:43;25.13;;;17.52;;
1400;SDS011;46518;48.842;8.926;2023-03-01T00:57:13;24.38;;;15.55;;
1400;SDS011;46518;48.842;8.926;2023-03-01T00:59:41;29.60;;;17.75;;
1400;SDS011;46518;48.842;8.926;2023-03-01T01:02:09;26.65;;;15.63;;
1400;SDS011;46518;48.842;8.926;2023-03-01T01:04:37;25.90;;;14.70;;
1400;SDS011;46518;48.842;8.926;2023-03-01T01:07:05;25.73;;;16.33;;
1400;SDS011;46518;48.842;8.926;2023-03-01T01:09:33;28.67;;;16.58;;
1400;SDS011;46518;48.842;8.926;2023-03-01T01:12:02;22.60;;;16.60;;
1400;SDS011;46518;48.842;8.926;2023-03-01T01:14:32;20.27;;;14.18;;
1400;SDS011;46518;48.842;8.926;2023-03-01T01:17:00;28.35;;;15.95;;
1400;SDS011;46518;48.842;8.926;2023-03-01T01:19:28;25.05;;;16.35;;
1400;SDS011;46518;48.842;8.926;2023-03-01T01:21:56;21.35;;;15.48;;
1400;SDS011;46518;48.842;8.926;2023-03-01T01:24:24;21.35;;;15.05;;
1400;SDS011;46518;48.842;8.926;2023-03-01T01:26:53;20.90;;;14.45;;
1400;SDS011;46518;48.842;8.926;2023-03-01T01:29:20;20.85;;;14.38;;
1400;SDS011;46518;48.842;8.926;2023-03-01T01:31:50;22.25;;;17.13;;
1400;SDS011;46518;48.842;8.926;2023-03-01T01:34:20;22.55;;;14.85;;
1400;SDS011;46518;48.842;8.926;2023-03-01T01:36:49;18.98;;;14.98;;
1400;SDS011;46518;48.842;8.926;2023-03-01T01:39:20;23.20;;;15.35;;
1400;SDS011;46518;48.842;8.926;2023-03-01T01:41:48;20.23;;;14.90;;
1400;SDS011;46518;48.842;8.926;2023-03-01T01:44:17;19.95;;;16.10;;
1400;SDS011;46518;48.842;8.926;2023-03-01T01:46:49;26.27;;;14.77;;
1400;SDS011;46518;48.842;8.926;2023-03-01T01:49:23;19.77;;;15.60;;
1400;SDS011;46518;48.842;8.926;2023-03-01T01:51:57;21.65;;;15.15;;
1400;SDS011;46518;48.842;8.926;2023-03-01T01:54:30;24.58;;;16.00;;
1400;SDS011;46518;48.842;8.926;2023-03-01T01:57:06;22.65;;;14.70;;
1400;SDS011;46518;48.842;8.926;2023-03-01T01:59:38;23.15;;;15.57;;
1400;SDS011;46518;48.842;8.926;2023-03-01T02:02:12;23.83;;;15.57;;
1400;SDS011;46518;48.842;8.926;2023-03-01T02:04:41;21.05;;;15.27;;
1400;SDS011;46518;48.842;8.926;2023-03-01T02:07:10;19.10;;;14.25;;
1400;SDS011;46518;48.842;8.926;2023-03-01T02:09:43;23.52;;;15.75;;
1400;SDS011;46518;48.842;8.926;2023-03-01T02:12:15;22.73;;;16.25;;
1400;SDS011;46518;48.842;8.926;2023-03-01T02:14:45;23.35;;;15.75;;
1400;SDS011;46518;48.842;8.926;2023-03-01T02:17:14;21.90;;;14.88;;
1400;SDS011;46518;48.842;8.926;2023-03-01T02:19:52;27.00;;;16.20;;
1400;SDS011;46518;48.842;8.926;2023-03-01T02:22:34;24.75;;;14.68;;
1400;SDS011;46518;48.842;8.926;2023-03-01T02:25:07;24.10;;;15.50;;
1400;SDS011;46518;48.842;8.926;2023-03-01T02:27:47;22.75;;;16.27;;
1400;SDS011;46518;48.842;8.926;2023-03-01T02:30:21;22.58;;;15.18;;
1400;SDS011;46518;48.842;8.926;2023-03-01T02:32:50;23.42;;;14.90;;
1400;SDS011;46518;48.842;8.926;2023-03-01T02:35:21;20.33;;;13.55;;
1400;SDS011;46518;48.842;8.926;2023-03-01T02:37:50;22.65;;;15.45;;
1400;SDS011;46518;48.842;8.926;2023-03-01T02:40:18;19.63;;;13.63;;
1400;SDS011;46518;48.842;8.926;2023-03-01T02:42:49;22.88;;;15.02;;
1400;SDS011;46518;48.842;8.926;2023-03-01T02:45:22;23.17;;;15.35;;
1400;SDS011;46518;48.842;8.926;2023-03-01T02:47:53;24.08;;;14.35;;
1400;SDS011;46518;48.842;8.926;2023-03-01T02:50:24;22.17;;;14.82;;
1400;SDS011;46518;48.842;8.926;2023-03-01T02:53:09;21.58;;;14.32;;
1400;SDS011;46518;48.842;8.926;2023-03-01T02:55:40;22.63;;;14.88;;
1400;SDS011;46518;48.842;8.926;2023-03-01T02:58:09;21.13;;;14.75;;
1400;SDS011;46518;48.842;8.926;2023-03-01T03:00:39;24.27;;;15.38;;
1400;SDS011;46518;48.842;8.926;2023-03-01T03:03:14;17.50;;;14.07;;
1400;SDS011;46518;48.842;8.926;2023-03-01T03:05:44;21.73;;;15.40;;
1400;SDS011;46518;48.842;8.926;2023-03-01T03:08:12;24.00;;;14.23;;
1400;SDS011;46518;48.842;8.926;2023-03-01T03:10:42;22.85;;;16.80;;
1400;SDS011;46518;48.842;8.926;2023-03-01T03:13:11;19.52;;;14.05;;
1400;SDS011;46518;48.842;8.926;2023-03-01T03:15:43;24.35;;;15.48;;
1400;SDS011;46518;48.842;8.926;2023-03-01T03:18:12;21.35;;;14.88;;
1400;SDS011;46518;48.842;8.926;2023-03-01T03:20:42;20.10;;;14.75;;
1400;SDS011;46518;48.842;8.926;2023-03-01T03:23:11;21.58;;;16.08;;
1400;SDS011;46518;48.842;8.926;2023-03-01T03:25:39;21.98;;;15.82;;
1400;SDS011;46518;48.842;8.926;2023-03-01T03:28:07;23.77;;;16.00;;
1400;SDS011;46518;48.842;8.926;2023-03-01T03:30:37;21.30;;;14.48;;
1400;SDS011;46518;48.842;8.926;2023-03-01T03:33:08;23.23;;;16.40;;
1400;SDS011;46518;48.842;8.926;2023-03-01T03:35:40;18.90;;;14.38;;
1400;SDS011;46518;48.842;8.926;2023-03-01T03:38:13;21.20;;;14.10;;
1400;SDS011;46518;48.842;8.926;2023-03-01T03:40:46;19.77;;;13.77;;
1400;SDS011;46518;48.842;8.926;2023-03-01T03:43:17;26.42;;;17.38;;
1400;SDS011;46518;48.842;8.926;2023-03-01T03:45:47;27.05;;;17.17;;
1400;SDS011;46518;48.842;8.926;2023-03-01T03:48:17;19.73;;;14.93;;
1400;SDS011;46518;48.842;8.926;2023-03-01T03:50:47;27.20;;;15.93;;
1400;SDS011;46518;48.842;8.926;2023-03-01T03:53:16;21.27;;;14.70;;
1400;SDS011;46518;48.842;8.926;2023-03-01T03:55:46;24.98;;;16.38;;
1400;SDS011;46518;48.842;8.926;2023-03-01T03:58:16;26.17;;;15.80;;
1400;SDS011;46518;48.842;8.926;2023-03-01T04:00:46;23.02;;;16.30;;
1400;SDS011;46518;48.842;8.926;2023-03-01T04:03:17;22.35;;;15.70;;
1400;SDS011;46518;48.842;8.926;2023-03-01T04:05:46;24.17;;;16.83;;
1400;SDS011;46518;48.842;8.926;2023-03-01T04:08:16;21.67;;;15.90;;
1400;SDS011;46518;48.842;8.926;2023-03-01T04:10:47;26.17;;;16.65;;
1400;SDS011;46518;48.842;8.926;2023-03-01T04:13:16;27.02;;;16.55;;
1400;SDS011;46518;48.842;8.926;2023-03-01T04:15:48;22.67;;;13.73;;
1400;SDS011;46518;48.842;8.926;2023-03-01T04:18:18;23.42;;;15.70;;
1400;SDS011;46518;48.842;8.926;2023-03-01T04:20:49;24.65;;;16.08;;
1400;SDS011;46518;48.842;8.926;2023-03-01T04:23:19;21.33;;;15.82;;
1400;SDS011;46518;48.842;8.926;2023-03-01T04:25:48;23.95;;;15.40;;
1400;SDS011;46518;48.842;8.926;2023-03-01T04:28:25;25.30;;;17.63;;
1400;SDS011;46518;48.842;8.926;2023-03-01T04:30:54;24.02;;;15.95;;
1400;SDS011;46518;48.842;8.926;2023-03-01T04:33:25;31.30;;;18.13;;
1400;SDS011;46518;48.842;8.926;2023-03-01T04:35:53;26.92;;;17.80;;
1400;SDS011;46518;48.842;8.926;2023-03-01T04:38:22;26.45;;;18.05;;
1400;SDS011;46518;48.842;8.926;2023-03-01T04:40:52;24.73;;;17.48;;
1400;SDS011;46518;48.842;8.926;2023-03-01T04:43:20;28.15;;;18.67;;
1400;SDS011;46518;48.842;8.926;2023-03-01T04:45:48;24.77;;;17.02;;
1400;SDS011;46518;48.842;8.926;2023-03-01T04:48:16;23.42;;;17.70;;
1400;SDS011;46518;48.842;8.926;2023-03-01T04:50:45;21.58;;;15.70;;
1400;SDS011;46518;48.842;8.926;2023-03-01T04:53:13;22.00;;;16.08;;
1400;SDS011;46518;48.842;8.926;2023-03-01T04:55:41;26.58;;;16.85;;
1400;SDS011;46518;48.842;8.926;2023-03-01T04:58:09;29.92;;;19.98;;
1400;SDS011;46518;48.842;8.926;2023-03-01T05:00:38;25.90;;;17.55;;
1400;SDS011;46518;48.842;8.926;2023-03-01T05:03:06;25.85;;;16.92;;
1400;SDS011;46518;48.842;8.926;2023-03-01T05:05:34;25.10;;;16.45;;
1400;SDS011;46518;48.842;8.926;2023-03-01T05:08:06;24.38;;;17.67;;
1400;SDS011;46518;48.842;8.926;2023-03-01T05:10:35;28.33;;;18.08;;
1400;SDS011;46518;48.842;8.926;2023-03-01T05:13:05;23.35;;;16.65;;
1400;SDS011;46518;48.842;8.926;2023-03-01T05:15:33;23.25;;;17.15;;
1400;SDS011;46518;48.842;8.926;2023-03-01T05:18:03;26.92;;;16.95;;
1400;SDS011;46518;48.842;8.926;2023-03-01T05:20:33;26.73;;;16.83;;
1400;SDS011;46518;48.842;8.926;2023-03-01T05:23:03;24.75;;;17.15;;
1400;SDS011;46518;48.842;8.926;2023-03-01T05:25:35;22.58;;;16.77;;
1400;SDS011;46518;48.842;8.926;2023-03-01T05:28:07;23.42;;;16.48;;
1400;SDS011;46518;48.842;8.926;2023-03-01T05:30:39;23.10;;;15.77;;
1400;SDS011;46518;48.842;8.926;2023-03-01T05:33:07;20.13;;;16.10;;
1400;SDS011;46518;48.842;8.926;2023-03-01T05:35:40;25.05;;;17.00;;
1400;SDS011;46518;48.842;8.926;2023-03-01T05:38:09;25.92;;;17.25;;
1400;SDS011;46518;48.842;8.926;2023-03-01T05:40:41;28.33;;;18.45;;
1400;SDS011;46518;48.842;8.926;2023-03-01T05:43:10;26.02;;;17.10;;
1400;SDS011;46518;48.842;8.926;2023-03-01T05:45:40;26.08;;;16.20;;
1400;SDS011;46518;48.842;8.926;2023-03-01T05:48:16;28.83;;;19.08;;
1400;SDS011;46518;48.842;8.926;2023-03-01T05:50:48;23.52;;;18.15;;
1400;SDS011;46518;48.842;8.926;2023-03-01T05:53:17;30.05;;;20.23;;
1400;SDS011;46518;48.842;8.926;2023-03-01T05:55:49;26.63;;;19.90;;
1400;SDS011;46518;48.842;8.926;2023-03-01T05:58:18;25.17;;;17.33;;
1400;SDS011;46518;48.842;8.926;2023-03-01T06:00:48;30.52;;;18.60;;
1400;SDS011;46518;48.842;8.926;2023-03-01T06:03:20;28.05;;;17.67;;
1400;SDS011;46518;48.842;8.926;2023-03-01T06:05:48;25.88;;;19.50;;
1400;SDS011;46518;48.842;8.926;2023-03-01T06:08:16;24.77;;;17.90;;
1400;SDS011;46518;48.842;8.926;2023-03-01T06:10:46;26.10;;;17.63;;
1400;SDS011;46518;48.842;8.926;2023-03-01T06:13:16;25.55;;;18.52;;
1400;SDS011;46518;48.842;8.926;2023-03-01T06:15:45;25.02;;;17.75;;
1400;SDS011;46518;48.842;8.926;2023-03-01T06:18:13;29.70;;;18.27;;
1400;SDS011;46518;48.842;8.926;2023-03-01T06:20:41;24.27;;;18.38;;
1400;SDS011;46518;48.842;8.926;2023-03-01T06:23:09;25.05;;;18.55;;
1400;SDS011;46518;48.842;8.926;2023-03-01T06:25:37;29.08;;;19.67;;
1400;SDS011;46518;48.842;8.926;2023-03-01T06:28:05;32.33;;;20.30;;
1400;SDS011;46518;48.842;8.926;2023-03-01T06:30:35;24.88;;;17.92;;
1400;SDS011;46518;48.842;8.926;2023-03-01T06:33:03;32.95;;;19.88;;
1400;SDS011;46518;48.842;8.926;2023-03-01T06:35:31;26.90;;;19.35;;
1400;SDS011;46518;48.842;8.926;2023-03-01T06:38:00;25.42;;;17.05;;
1400;SDS011;46518;48.842;8.926;2023-03-01T06:40:30;29.33;;;18.45;;
1400;SDS011;46518;48.842;8.926;2023-03-01T06:42:58;32.90;;;20.60;;
1400;SDS011;46518;48.842;8.926;2023-03-01T06:45:27;27.10;;;17.02;;
1400;SDS011;46518;48.842;8.926;2023-03-01T06:48:02;32.72;;;19.88;;
1400;SDS011;46518;48.842;8.926;2023-03-01T06:50:31;27.85;;;17.95;;
1400;SDS011;46518;48.842;8.926;2023-03-01T06:53:00;29.77;;;18.05;;
1400;SDS011;46518;48.842;8.926;2023-03-01T06:55:28;27.70;;;17.45;;
1400;SDS011;46518;48.842;8.926;2023-03-01T06:57:56;23.90;;;17.85;;
1400;SDS011;46518;48.842;8.926;2023-03-01T07:00:26;28.55;;;18.30;;
1400;SDS011;46518;48.842;8.926;2023-03-01T07:02:56;35.92;;;19.67;;
1400;SDS011;46518;48.842;8.926;2023-03-01T07:05:27;27.25;;;19.30;;
1400;SDS011;46518;48.842;8.926;2023-03-01T07:07:56;28.60;;;18.10;;
1400;SDS011;46518;48.842;8.926;2023-03-01T07:10:24;32.58;;;20.08;;
1400;SDS011;46518;48.842;8.926;2023-03-01T07:12:54;28.98;;;18.95;;
1400;SDS011;46518;48.842;8.926;2023-03-01T07:15:22;26.88;;;17.30;;
1400;SDS011;46518;48.842;8.926;2023-03-01T07:17:50;26.15;;;18.50;;
1400;SDS011;46518;48.842;8.926;2023-03-01T07:20:19;20.85;;;16.75;;
1400;SDS011;46518;48.842;8.926;2023-03-01T07:22:52;26.00;;;17.77;;
1400;SDS011;46518;48.842;8.926;2023-03-01T07:25:21;27.02;;;18.33;;
1400;SDS011;46518;48.842;8.926;2023-03-01T07:27:49;28.35;;;18.60;;
1400;SDS011;46518;48.842;8.926;2023-03-01T07:30:21;32.75;;;19.73;;
1400;SDS011;46518;48.842;8.926;2023-03-01T07:32:52;26.90;;;17.70;;
1400;SDS011;46518;48.842;8.926;2023-03-01T07:35:21;23.80;;;17.00;;
1400;SDS011;46518;48.842;8.926;2023-03-01T07:37:50;30.67;;;18.35;;
1400;SDS011;46518;48.842;8.926;2023-03-01T07:40:24;32.53;;;20.75;;
1400;SDS011;46518;48.842;8.926;2023-03-01T07:42:55;25.17;;;18.13;;
1400;SDS011;46518;48.842;8.926;2023-03-01T07:45:25;27.30;;;17.95;;
1400;SDS011;46518;48.842;8.926;2023-03-01T07:48:08;28.48;;;18.98;;
1400;SDS011;46518;48.842;8.926;2023-03-01T07:50:37;28.02;;;18.38;;
1400;SDS011;46518;48.842;8.926;2023-03-01T07:53:05;27.05;;;18.67;;
1400;SDS011;46518;48.842;8.926;2023-03-01T07:55:35;31.88;;;19.25;;
1400;SDS011;46518;48.842;8.926;2023-03-01T07:58:03;32.08;;;18.70;;
1400;SDS011;46518;48.842;8.926;2023-03-01T08:00:31;27.02;;;16.33;;
1400;SDS011;46518;48.842;8.926;2023-03-01T08:03:00;30.23;;;19.52;;
1400;SDS011;46518;48.842;8.926;2023-03-01T08:05:28;28.65;;;18.50;;
1400;SDS011;46518;48.842;8.926;2023-03-01T08:07:56;28.35;;;17.80;;
1400;SDS011;46518;48.842;8.926;2023-03-01T08:10:24;24.85;;;16.48;;
1400;SDS011;46518;48.842;8.926;2023-03-01T08:12:57;29.67;;;19.08;;
1400;SDS011;46518;48.842;8.926;2023-03-01T08:15:25;25.27;;;17.40;;
1400;SDS011;46518;48.842;8.926;2023-03-01T08:17:56;28.63;;;18.05;;
1400;SDS011;46518;48.842;8.926;2023-03-01T08:20:30;30.15;;;18.30;;
1400;SDS011;46518;48.842;8.926;2023-03-01T08:22:58;24.55;;;17.40;;
1400;SDS011;46518;48.842;8.926;2023-03-01T08:26:09;30.17;;;19.65;;
1400;SDS011;46518;48.842;8.926;2023-03-01T08:28:56;27.75;;;18.10;;
1400;SDS011;46518;48.842;8.926;2023-03-01T08:31:26;32.63;;;19.90;;
1400;SDS011;46518;48.842;8.926;2023-03-01T08:33:57;30.77;;;21.45;;
1400;SDS011;46518;48.842;8.926;2023-03-01T08:39:46;28.90;;;19.67;;
1400;SDS011;46518;48.842;8.926;2023-03-01T08:42:14;30.98;;;19.98;;
1400;SDS011;46518;48.842;8.926;2023-03-01T08:48:30;32.13;;;20.45;;
1400;SDS011;46518;48.842;8.926;2023-03-01T08:51:08;29.80;;;19.70;;
1400;SDS011;46518;48.842;8.926;2023-03-01T08:53:37;30.42;;;19.40;;
1400;SDS011;46518;48.842;8.926;2023-03-01T08:56:06;29.80;;;17.95;;
1400;SDS011;46518;48.842;8.926;2023-03-01T08:58:35;27.85;;;18.98;;
1400;SDS011;46518;48.842;8.926;2023-03-01T09:01:06;30.60;;;20.08;;
1400;SDS011;46518;48.842;8.926;2023-03-01T09:03:37;25.73;;;18.40;;
1400;SDS011;46518;48.842;8.926;2023-03-01T09:06:06;25.90;;;19.00;;
1400;SDS011;46518;48.842;8.926;2023-03-01T09:08:36;24.80;;;19.38;;
1400;SDS011;46518;48.842;8.926;2023-03-01T09:11:06;31.08;;;21.00;;
1400;SDS011;46518;48.842;8.926;2023-03-01T09:13:36;30.45;;;18.77;;
1400;SDS011;46518;48.842;8.926;2023-03-01T09:16:15;26.42;;;18.13;;
1400;SDS011;46518;48.842;8.926;2023-03-01T09:18:51;27.05;;;19.35;;
1400;SDS011;46518;48.842;8.926;2023-03-01T09:21:21;35.80;;;22.48;;
1400;SDS011;46518;48.842;8.926;2023-03-01T09:24:06;29.02;;;18.83;;
1400;SDS011;46518;48.842;8.926;2023-03-01T09:26:35;30.38;;;18.88;;
1400;SDS011;46518;48.842;8.926;2023-03-01T09:29:03;28.27;;;18.60;;
1400;SDS011;46518;48.842;8.926;2023-03-01T09:31:32;27.08;;;19.55;;
1400;SDS011;46518;48.842;8.926;2023-03-01T09:34:02;32.30;;;20.50;;
1400;SDS011;46518;48.842;8.926;2023-03-01T09:36:30;32.00;;;19.88;;
1400;SDS011;46518;48.842;8.926;2023-03-01T09:38:59;36.13;;;22.13;;
1400;SDS011;46518;48.842;8.926;2023-03-01T09:41:35;26.05;;;17.95;;
1400;SDS011;46518;48.842;8.926;2023-03-01T09:44:10;29.42;;;19.73;;
1400;SDS011;46518;48.842;8.926;2023-03-01T09:46:46;30.65;;;19.75;;
1400;SDS011;46518;48.842;8.926;2023-03-01T09:49:17;28.40;;;19.70;;
1400;SDS011;46518;48.842;8.926;2023-03-01T09:51:50;32.15;;;20.63;;
1400;SDS011;46518;48.842;8.926;2023-03-01T09:54:23;31.95;;;19.65;;
1400;SDS011;46518;48.842;8.926;2023-03-01T09:56:54;31.48;;;20.00;;
1400;SDS011;46518;48.842;8.926;2023-03-01T09:59:32;30.52;;;20.55;;
1400;SDS011;46518;48.842;8.926;2023-03-01T10:02:19;29.30;;;19.67;;
1400;SDS011;46518;48.842;8.926;2023-03-01T10:04:53;26.58;;;18.75;;
1400;SDS011;46518;48.842;8.926;2023-03-01T10:07:27;24.60;;;18.30;;
1400;SDS011;46518;48.842;8.926;2023-03-01T10:10:00;27.85;;;19.75;;
1400;SDS011;46518;48.842;8.926;2023-03-01T10:12:33;28.40;;;20.77;;
1400;SDS011;46518;48.842;8.926;2023-03-01T10:15:06;30.13;;;19.60;;
1400;SDS011;46518;48.842;8.926;2023-03-01T10:17:37;28.92;;;19.38;;
1400;SDS011;46518;48.842;8.926;2023-03-01T10:20:17;29.83;;;19.65;;
1400;SDS011;46518;48.842;8.926;2023-03-01T10:22:50;28.42;;;20.40;;
1400;SDS011;46518;48.842;8.926;2023-03-01T10:25:24;27.42;;;17.77;;
1400;SDS011;46518;48.842;8.926;2023-03-01T10:28:05;25.27;;;18.92;;
1400;SDS011;46518;48.842;8.926;2023-03-01T10:30:43;27.90;;;19.67;;
1400;SDS011;46518;48.842;8.926;2023-03-01T10:33:16;28.73;;;18.83;;
1400;SDS011;46518;48.842;8.926;2023-03-01T10:35:49;28.63;;;18.95;;
1400;SDS011;46518;48.842;8.926;2023-03-01T10:38:18;26.38;;;19.02;;
1400;SDS011;46518;48.842;8.926;2023-03-01T10:40:51;28.83;;;20.55;;
1400;SDS011;46518;48.842;8.926;2023-03-01T10:43:23;29.70;;;19.02;;
1400;SDS011;46518;48.842;8.926;2023-03-01T10:45:53;32.05;;;20.77;;
1400;SDS011;46518;48.842;8.926;2023-03-01T10:48:22;27.35;;;20.60;;
1400;SDS011;46518;48.842;8.926;2023-03-01T10:51:05;27.35;;;18.90;;
1400;SDS011;46518;48.842;8.926;2023-03-01T10:53:35;27.50;;;19.20;;
1400;SDS011;46518;48.842;8.926;2023-03-01T10:56:06;27.33;;;18.80;;
1400;SDS011;46518;48.842;8.926;2023-03-01T10:58:36;30.00;;;20.20;;
1400;SDS011;46518;48.842;8.926;2023-03-01T11:01:08;29.85;;;19.10;;
1400;SDS011;46518;48.842;8.926;2023-03-01T11:04:08;29.88;;;19.33;;
1400;SDS011;46518;48.842;8.926;2023-03-01T11:06:40;27.75;;;20.00;;
1400;SDS011;46518;48.842;8.926;2023-03-01T11:09:15;26.83;;;20.08;;
1400;SDS011;46518;48.842;8.926;2023-03-01T11:11:46;27.63;;;20.00;;
1400;SDS011;46518;48.842;8.926;2023-03-01T11:14:20;27.20;;;20.15;;
1400;SDS011;46518;48.842;8.926;2023-03-01T11:17:02;27.05;;;19.23;;
1400;SDS011;46518;48.842;8.926;2023-03-01T11:19:32;30.05;;;18.92;;
1400;SDS011;46518;48.842;8.926;2023-03-01T11:22:04;26.98;;;18.65;;
1400;SDS011;46518;48.842;8.926;2023-03-01T11:24:40;29.63;;;19.13;;
1400;SDS011;46518;48.842;8.926;2023-03-01T11:27:18;30.75;;;21.15;;
1400;SDS011;46518;48.842;8.926;2023-03-01T11:29:51;27.05;;;19.15;;
1400;SDS011;46518;48.842;8.926;2023-03-01T11:32:22;28.83;;;18.73;;
1400;SDS011;46518;48.842;8.926;2023-03-01T11:34:55;33.92;;;19.38;;
1400;SDS011;46518;48.842;8.926;2023-03-01T11:37:32;25.63;;;17.80;;
1400;SDS011;46518;48.842;8.926;2023-03-01T11:40:05;26.13;;;18.15;;
1400;SDS011;46518;48.842;8.926;2023-03-01T11:42:43;31.27;;;20.95;;
1400;SDS011;46518;48.842;8.926;2023-03-01T11:45:18;29.35;;;19.65;;
1400;SDS011;46518;48.842;8.926;2023-03-01T11:50:50;26.33;;;19.58;;
1400;SDS011;46518;48.842;8.926;2023-03-01T11:53:27;25.45;;;18.60;;
1400;SDS011;46518;48.842;8.926;2023-03-01T11:56:09;27.00;;;18.17;;
1400;SDS011;46518;48.842;8.926;2023-03-01T11:58:47;30.35;;;19.73;;
1400;SDS011;46518;48.842;8.926;2023-03-01T12:01:27;25.83;;;18.40;;
1400;SDS011;46518;48.842;8.926;2023-03-01T12:07:31;25.40;;;17.00;;
1400;SDS011;46518;48.842;8.926;2023-03-01T12:10:19;28.85;;;18.15;;
1400;SDS011;46518;48.842;8.926;2023-03-01T12:12:58;25.00;;;16.77;;
1400;SDS011;46518;48.842;8.926;2023-03-01T12:15:43;26.35;;;18.30;;
1400;SDS011;46518;48.842;8.926;2023-03-01T12:18:25;24.05;;;17.13;;
1400;SDS011;46518;48.842;8.926;2023-03-01T12:21:06;24.98;;;17.92;;
1400;SDS011;46518;48.842;8.926;2023-03-01T12:23:54;27.70;;;18.23;;
1400;SDS011;46518;48.842;8.926;2023-03-01T12:26:33;25.30;;;18.20;;
1400;SDS011;46518;48.842;8.926;2023-03-01T12:29:08;23.75;;;16.38;;
1400;SDS011;46518;48.842;8.926;2023-03-01T12:32:11;23.85;;;16.40;;
1400;SDS011;46518;48.842;8.926;2023-03-01T12:34:59;26.73;;;16.83;;
1400;SDS011;46518;48.842;8.926;2023-03-01T12:37:42;24.33;;;17.80;;
1400;SDS011;46518;48.842;8.926;2023-03-01T12:40:25;23.30;;;16.67;;
1400;SDS011;46518;48.842;8.926;2023-03-01T12:43:06;26.95;;;17.42;;
1400;SDS011;46518;48.842;8.926;2023-03-01T12:45:52;21.73;;;17.25;;
1400;SDS011;46518;48.842;8.926;2023-03-01T12:48:36;23.08;;;17.02;;
1400;SDS011;46518;48.842;8.926;2023-03-01T12:51:12;23.23;;;17.90;;
1400;SDS011;46518;48.842;8.926;2023-03-01T12:53:43;25.38;;;17.65;;
1400;SDS011;46518;48.842;8.926;2023-03-01T12:56:15;25.38;;;17.83;;
1400;SDS011;46518;48.842;8.926;2023-03-01T12:58:50;26.23;;;16.48;;
1400;SDS011;46518;48.842;8.926;2023-03-01T13:01:27;25.15;;;17.52;;
1400;SDS011;46518;48.842;8.926;2023-03-01T13:04:06;22.27;;;16.10;;
1400;SDS011;46518;48.842;8.926;2023-03-01T13:06:44;25.52;;;15.82;;
1400;SDS011;46518;48.842;8.926;2023-03-01T13:09:23;24.40;;;16.95;;
1400;SDS011;46518;48.842;8.926;2023-03-01T13:12:00;25.58;;;17.42;;
1400;SDS011;46518;48.842;8.926;2023-03-01T13:14:37;28.58;;;17.45;;
1400;SDS011;46518;48.842;8.926;2023-03-01T13:17:32;24.58;;;17.90;;
1400;SDS011;46518;48.842;8.926;2023-03-01T13:20:15;32.42;;;21.20;;
1400;SDS011;46518;48.842;8.926;2023-03-01T13:22:45;26.55;;;19.60;;
1400;SDS011;46518;48.842;8.926;2023-03-01T13:25:20;27.88;;;20.17;;
1400;SDS011;46518;48.842;8.926;2023-03-01T13:31:55;29.83;;;20.48;;
1400;SDS011;46518;48.842;8.926;2023-03-01T13:34:46;24.85;;;17.60;;
1400;SDS011;46518;48.842;8.926;2023-03-01T13:37:25;31.60;;;21.40;;
1400;SDS011;46518;48.842;8.926;2023-03-01T13:40:07;31.05;;;19.52;;
1400;SDS011;46518;48.842;8.926;2023-03-01T13:43:28;27.95;;;19.33;;
1400;SDS011;46518;48.842;8.926;2023-03-01T13:45:58;29.60;;;19.50;;
1400;SDS011;46518;48.842;8.926;2023-03-01T13:48:29;29.80;;;21.48;;
1400;SDS011;46518;48.842;8.926;2023-03-01T13:50:58;29.50;;;21.10;;
1400;SDS011;46518;48.842;8.926;2023-03-01T13:53:29;33.28;;;21.00;;
1400;SDS011;46518;48.842;8.926;2023-03-01T13:56:01;29.20;;;20.45;;
1400;SDS011;46518;48.842;8.926;2023-03-01T13:58:31;26.17;;;18.73;;
1400;SDS011;46518;48.842;8.926;2023-03-01T14:01:03;27.13;;;18.98;;
1400;SDS011;46518;48.842;8.926;2023-03-01T14:03:40;24.05;;;18.17;;
1400;SDS011;46518;48.842;8.926;2023-03-01T14:06:12;28.73;;;19.75;;
1400;SDS011;46518;48.842;8.926;2023-03-01T14:08:48;31.05;;;20.42;;
1400;SDS011;46518;48.842;8.926;2023-03-01T14:11:31;26.75;;;17.80;;
1400;SDS011;46518;48.842;8.926;2023-03-01T14:14:16;28.70;;;20.60;;
1400;SDS011;46518;48.842;8.926;2023-03-01T14:16:57;31.27;;;21.77;;
1400;SDS011;46518;48.842;8.926;2023-03-01T14:19:32;31.13;;;21.13;;
1400;SDS011;46518;48.842;8.926;2023-03-01T14:22:03;27.27;;;19.10;;
1400;SDS011;46518;48.842;8.926;2023-03-01T14:24:41;32.10;;;20.15;;
1400;SDS011;46518;48.842;8.926;2023-03-01T14:27:15;23.52;;;17.55;;
1400;SDS011;46518;48.842;8.926;2023-03-01T14:29:53;29.67;;;20.13;;
1400;SDS011;46518;48.842;8.926;2023-03-01T14:32:24;26.85;;;19.65;;
1400;SDS011;46518;48.842;8.926;2023-03-01T14:34:55;29.77;;;20.42;;
1400;SDS011;46518;48.842;8.926;2023-03-01T14:37:25;24.15;;;19.48;;
1400;SDS011;46518;48.842;8.926;2023-03-01T14:39:55;24.45;;;18.67;;
1400;SDS011;46518;48.842;8.926;2023-03-01T14:42:24;25.90;;;18.73;;
1400;SDS011;46518;48.842;8.926;2023-03-01T14:44:55;24.60;;;19.15;;
1400;SDS011;46518;48.842;8.926;2023-03-01T14:47:26;27.27;;;18.70;;
1400;SDS011;46518;48.842;8.926;2023-03-01T14:50:00;26.60;;;18.77;;
1400;SDS011;46518;48.842;8.926;2023-03-01T14:52:32;27.67;;;20.00;;
1400;SDS011;46518;48.842;8.926;2023-03-01T14:55:04;30.75;;;21.73;;
1400;SDS011;46518;48.842;8.926;2023-03-01T14:57:35;29.58;;;19.55;;
1400;SDS011;46518;48.842;8.926;2023-03-01T15:00:03;27.77;;;19.80;;
1400;SDS011;46518;48.842;8.926;2023-03-01T15:02:34;26.33;;;18.05;;
1400;SDS011;46518;48.842;8.926;2023-03-01T15:05:04;26.23;;;18.40;;
1400;SDS011;46518;48.842;8.926;2023-03-01T15:07:35;27.15;;;18.33;;
1400;SDS011;46518;48.842;8.926;2023-03-01T15:10:13;27.58;;;17.05;;
1400;SDS011;46518;48.842;8.926;2023-03-01T15:12:46;26.20;;;17.70;;
1400;SDS011;46518;48.842;8.926;2023-03-01T15:18:06;28.95;;;19.38;;
1400;SDS011;46518;48.842;8.926;2023-03-01T15:20:44;27.10;;;19.75;;
1400;SDS011;46518;48.842;8.926;2023-03-01T15:23:23;27.23;;;18.48;;